Terminal Aerodrome Forecast
Issued by NWS

Home | Current Version | Previous Version | Text Only | Print | Product List | Glossary On
Versions: 1 2 3 4 5 6 7 8 9 10 11 12 13 14 15 16 17 18 19 20 21 22 23 24 25 26 27 28 29 30 31 32 33 34 35 36
000
FTPA31 PHFO 210200 AAA
TAFPPG
TAF AMD
NSTU 210205Z 2102/2124 11009KT P6SM VCSH SCT025 SCT040 BKN100
      TEMPO 2102/2104 -SHRA SCT012 BKN020 OVC080
     FM210900 11012KT P6SM -SHRA SCT025 OVC040=

USA.gov is the U.S. government's official web portal to all federal, state and local government web resources and services.